Time;durP1;ratioP1;P1;durP2;ratioP2;P2;SDS_P1;SDS_P2;PMS_P1;PMS_P2;Temp;Humidity;BMP_temperature;BMP_pressure;BME280_temperature;BME280_humidity;BME280_pressure;Samples;Min_cycle;Max_cycle;Signal;HPM_P1;HPM_P2
2022/04/24 00:00:43;;;;;;;;;;;9.50;99.90;;;;;;5052127;28;19964;-82
2022/04/24 00:03:08;;;;;;;;;;;9.60;99.90;;;;;;5039144;28;19916;-83
2022/04/24 00:05:34;;;;;;;;;;;9.60;99.90;;;;;;5070949;28;19917;-83
2022/04/24 00:08:00;;;;;;;;;;;9.60;99.90;;;;;;5048997;28;19916;-83
2022/04/24 00:10:26;;;;;;;;;;;9.70;99.90;;;;;;5085138;28;19962;-83
2022/04/24 00:12:51;;;;;;;;;;;9.70;99.90;;;;;;5038267;28;19917;-83
2022/04/24 00:15:17;;;;;;;;;;;9.70;99.90;;;;;;5070075;28;19964;-83
2022/04/24 00:17:42;;;;;;;;;;;9.70;99.90;;;;;;5038724;28;19925;-83
2022/04/24 00:20:08;;;;;;;;;;;9.70;99.90;;;;;;5037789;28;20448;-83
2022/04/24 00:22:34;;;;;;;;;;;9.70;99.90;;;;;;5069385;28;19912;-82
2022/04/24 00:24:59;;;;;;;;;;;9.70;99.90;;;;;;5074417;28;20265;-83
2022/04/24 00:27:25;;;;;;;;;;;9.60;99.90;;;;;;5053735;28;19924;-83
2022/04/24 00:29:51;;;;;;;;;;;9.60;99.90;;;;;;5088348;28;19920;-82
2022/04/24 00:32:16;;;;;;;;;;;9.60;99.90;;;;;;5049398;28;19917;-83
2022/04/24 00:34:42;;;;;;;;;;;9.60;99.90;;;;;;5074391;28;19991;-82
2022/04/24 00:37:07;;;;;;;;;;;9.60;99.90;;;;;;5051125;28;19971;-82
2022/04/24 00:39:33;;;;;;;;;;;9.60;99.90;;;;;;5055591;28;19917;-82
2022/04/24 00:41:59;;;;;;;;;;;9.60;99.90;;;;;;5061875;28;19916;-82
2022/04/24 00:44:26;;;;;;;;;;;9.60;99.90;;;;;;5091160;28;19962;-83
2022/04/24 00:47:14;;;;;;;;;;;9.60;99.90;;;;;;5074630;28;19958;-83
2022/04/24 00:49:40;;;;;;;;;;;9.60;99.90;;;;;;5038111;28;19916;-82
2022/04/24 00:52:05;;;;;;;;;;;9.60;99.90;;;;;;5037778;28;20168;-82
2022/04/24 00:54:32;;;;;;;;;;;9.60;99.90;;;;;;5070593;28;19925;-83
2022/04/24 00:56:58;;;;;;;;;;;9.70;99.90;;;;;;5055460;28;19958;-83
2022/04/24 00:59:24;;;;;;;;;;;9.70;99.90;;;;;;5036524;28;20166;-82
2022/04/24 01:01:50;;;;;;;;;;;9.70;99.90;;;;;;5059103;28;19955;-82
2022/04/24 01:04:16;;;;;;;;;;;9.70;99.90;;;;;;5086530;28;19909;-83
2022/04/24 01:06:42;;;;;;;;;;;9.70;99.90;;;;;;5053740;28;20008;-83
2022/04/24 01:09:26;;;;;;;;;;;9.70;99.90;;;;;;5054342;28;19909;-83
2022/04/24 01:11:55;;;;;;;;;;;9.70;99.90;;;;;;5040945;28;19924;-83
2022/04/24 01:14:22;;;;;;;;;;;9.70;99.90;;;;;;5078997;28;19913;-83
2022/04/24 01:16:48;;;;;;;;;;;9.70;99.90;;;;;;5035869;28;19921;-83
2022/04/24 01:19:14;;;;;;;;;;;9.70;99.90;;;;;;5039256;28;19943;-83
2022/04/24 01:21:44;;;;;;;;;;;9.70;99.90;;;;;;5039380;28;19917;-83
2022/04/24 01:24:09;;;;;;;;;;;9.70;99.90;;;;;;5055748;28;19995;-83
2022/04/24 01:26:35;;;;;;;;;;;9.70;99.90;;;;;;5035585;28;19967;-83
2022/04/24 01:29:02;;;;;;;;;;;9.70;99.90;;;;;;5037212;28;19965;-83
2022/04/24 01:31:28;;;;;;;;;;;9.70;99.90;;;;;;5072929;28;19966;-83
2022/04/24 01:33:53;;;;;;;;;;;9.70;99.90;;;;;;5039844;28;20023;-83
2022/04/24 01:36:19;;;;;;;;;;;9.70;99.90;;;;;;5071446;28;19924;-83
2022/04/24 01:38:44;;;;;;;;;;;9.70;99.90;;;;;;5070509;28;20384;-83
2022/04/24 01:41:10;;;;;;;;;;;9.70;99.90;;;;;;5083020;28;19955;-83
2022/04/24 01:43:36;;;;;;;;;;;9.70;99.90;;;;;;5055552;28;20430;-83
2022/04/24 01:46:05;;;;;;;;;;;9.60;99.90;;;;;;5056377;28;19916;-83
2022/04/24 01:48:33;;;;;;;;;;;9.70;99.90;;;;;;5056768;28;19980;-83
2022/04/24 01:51:02;;;;;;;;;;;9.70;99.90;;;;;;5058398;28;19925;-83
2022/04/24 01:53:28;;;;;;;;;;;9.70;99.90;;;;;;5058165;28;19916;-83
2022/04/24 01:55:58;;;;;;;;;;;9.70;99.90;;;;;;5040144;28;19925;-83
2022/04/24 01:58:24;;;;;;;;;;;9.70;99.90;;;;;;5061440;28;19917;-83
2022/04/24 02:00:49;;;;;;;;;;;9.70;99.90;;;;;;5061749;28;19919;-83
2022/04/24 02:03:15;;;;;;;;;;;9.80;99.90;;;;;;5077220;28;19917;-82
2022/04/24 02:05:40;;;;;;;;;;;9.80;99.90;;;;;;5066259;28;19916;-83
2022/04/24 02:08:06;;;;;;;;;;;9.80;99.90;;;;;;5036266;28;20016;-83
2022/04/24 02:10:32;;;;;;;;;;;9.80;99.90;;;;;;5036763;28;19920;-83
2022/04/24 02:12:58;;;;;;;;;;;9.80;99.90;;;;;;5070247;28;20593;-83
2022/04/24 02:15:23;;;;;;;;;;;9.80;99.90;;;;;;5053292;28;19939;-83
2022/04/24 02:17:49;;;;;;;;;;;9.80;99.90;;;;;;5053072;28;20264;-83
2022/04/24 02:20:14;;;;;;;;;;;9.80;99.90;;;;;;5037350;28;19913;-83
2022/04/24 02:22:40;;;;;;;;;;;9.80;99.90;;;;;;5070094;28;20396;-83
2022/04/24 02:25:06;;;;;;;;;;;9.90;99.90;;;;;;5087273;28;20371;-83
2022/04/24 02:27:32;;;;;;;;;;;9.90;99.90;;;;;;5035702;28;19917;-83
2022/04/24 02:29:57;;;;;;;;;;;9.90;99.90;;;;;;5087522;28;19919;-83
2022/04/24 02:32:23;;;;;;;;;;;9.90;99.90;;;;;;5087851;28;20066;-83
2022/04/24 02:34:48;;;;;;;;;;;9.90;99.90;;;;;;5054958;28;19924;-82
2022/04/24 02:37:14;;;;;;;;;;;9.90;99.90;;;;;;5056038;28;20453;-83
2022/04/24 02:39:39;;;;;;;;;;;9.90;99.80;;;;;;5045975;28;20294;-83
2022/04/24 02:42:05;;;;;;;;;;;9.90;99.60;;;;;;5066906;28;20310;-83
2022/04/24 02:44:31;;;;;;;;;;;9.90;99.90;;;;;;5069973;28;19917;-83
2022/04/24 02:46:56;;;;;;;;;;;9.90;99.90;;;;;;5039503;28;19923;-83
2022/04/24 02:49:22;;;;;;;;;;;9.90;99.90;;;;;;5056775;28;19924;-83
2022/04/24 02:51:47;;;;;;;;;;;9.90;99.70;;;;;;5090603;28;19935;-83
2022/04/24 02:54:13;;;;;;;;;;;9.90;99.60;;;;;;5042978;28;19916;-83
2022/04/24 02:56:38;;;;;;;;;;;9.90;99.90;;;;;;5079714;28;19920;-83
2022/04/24 02:59:04;;;;;;;;;;;9.90;99.90;;;;;;5044924;28;19924;-83
2022/04/24 03:01:34;;;;;;;;;;;9.80;99.90;;;;;;5091051;28;19913;-83
2022/04/24 03:04:00;;;;;;;;;;;9.80;99.90;;;;;;5078076;28;20083;-83
2022/04/24 03:06:25;;;;;;;;;;;9.80;99.90;;;;;;5081733;28;19991;-83
2022/04/24 03:08:51;;;;;;;;;;;9.80;99.90;;;;;;5059810;28;20275;-83
2022/04/24 03:11:16;;;;;;;;;;;9.80;99.40;;;;;;5083161;28;19916;-83
2022/04/24 03:13:42;;;;;;;;;;;9.80;98.90;;;;;;5079925;28;19920;-83
2022/04/24 03:16:08;;;;;;;;;;;9.80;98.00;;;;;;5083559;28;19956;-83
2022/04/24 03:18:34;;;;;;;;;;;9.80;97.80;;;;;;5063527;28;19917;-83
2022/04/24 03:20:59;;;;;;;;;;;9.80;97.70;;;;;;5064365;28;20418;-84
2022/04/24 03:23:25;;;;;;;;;;;9.80;97.80;;;;;;5075802;28;19913;-83
2022/04/24 03:25:50;;;;;;;;;;;9.80;97.80;;;;;;5092347;28;19913;-83
2022/04/24 03:28:17;;;;;;;;;;;9.80;98.30;;;;;;5067505;28;19916;-83
2022/04/24 03:30:42;;;;;;;;;;;9.80;97.70;;;;;;5065854;28;19917;-83
2022/04/24 03:33:08;;;;;;;;;;;9.80;97.50;;;;;;5045523;28;19921;-83
2022/04/24 03:35:33;;;;;;;;;;;9.80;95.90;;;;;;5065765;28;20027;-82
2022/04/24 03:37:59;;;;;;;;;;;9.80;96.90;;;;;;5058396;28;19908;-83
2022/04/24 03:40:25;;;;;;;;;;;9.80;96.90;;;;;;5040439;28;19917;-83
2022/04/24 03:42:50;;;;;;;;;;;9.80;97.20;;;;;;5041331;28;19952;-83
2022/04/24 03:45:16;;;;;;;;;;;9.80;97.70;;;;;;5091572;28;20171;-82
2022/04/24 03:47:41;;;;;;;;;;;9.80;97.60;;;;;;5059678;28;19920;-83
2022/04/24 03:50:07;;;;;;;;;;;9.80;97.50;;;;;;5064754;28;19916;-83
2022/04/24 03:52:32;;;;;;;;;;;9.80;97.50;;;;;;5057466;28;19913;-83
2022/04/24 03:54:58;;;;;;;;;;;9.80;98.60;;;;;;5074266;28;19921;-83
2022/04/24 03:57:24;;;;;;;;;;;9.70;98.80;;;;;;5057420;28;19913;-83
2022/04/24 03:59:50;;;;;;;;;;;9.70;99.90;;;;;;5060828;28;19962;-83
2022/04/24 04:02:16;;;;;;;;;;;9.70;99.90;;;;;;5043282;28;19920;-83
2022/04/24 04:04:41;;;;;;;;;;;9.60;99.90;;;;;;5065633;28;19917;-83
2022/04/24 04:07:07;;;;;;;;;;;9.60;99.90;;;;;;5076042;28;20018;-83
2022/04/24 04:09:32;;;;;;;;;;;9.60;99.90;;;;;;5070850;28;19948;-83
2022/04/24 04:11:58;;;;;;;;;;;9.60;99.90;;;;;;5058107;28;19964;-83
2022/04/24 04:14:23;;;;;;;;;;;9.60;99.90;;;;;;5074301;28;19923;-83
2022/04/24 04:16:49;;;;;;;;;;;9.60;99.90;;;;;;5050389;28;20391;-83
2022/04/24 04:19:15;;;;;;;;;;;9.50;99.90;;;;;;5075762;28;19976;-83
2022/04/24 04:21:41;;;;;;;;;;;9.50;99.70;;;;;;5065014;28;20003;-83
2022/04/24 04:24:08;;;;;;;;;;;9.50;99.90;;;;;;5074438;28;19913;-83
2022/04/24 04:26:34;;;;;;;;;;;9.50;99.20;;;;;;5059469;28;19920;-83
2022/04/24 04:28:59;;;;;;;;;;;9.50;98.20;;;;;;5061137;28;19913;-83
2022/04/24 04:31:25;;;;;;;;;;;9.50;97.60;;;;;;5093809;28;19912;-83
2022/04/24 04:33:51;;;;;;;;;;;9.50;97.90;;;;;;5051312;28;19921;-83
2022/04/24 04:36:16;;;;;;;;;;;9.40;98.70;;;;;;5036326;28;19920;-83
2022/04/24 04:38:42;;;;;;;;;;;9.40;98.70;;;;;;5037280;28;19928;-83
2022/04/24 04:41:07;;;;;;;;;;;9.40;98.90;;;;;;5037660;28;19916;-83
2022/04/24 04:43:33;;;;;;;;;;;9.40;99.90;;;;;;5037553;28;20015;-82
2022/04/24 04:45:59;;;;;;;;;;;9.30;99.90;;;;;;5054548;28;19916;-83
2022/04/24 04:48:24;;;;;;;;;;;9.30;99.90;;;;;;5045678;28;19916;-83
2022/04/24 04:50:50;;;;;;;;;;;9.30;99.90;;;;;;5084596;28;20267;-83
2022/04/24 04:53:15;;;;;;;;;;;9.30;99.90;;;;;;5043711;28;20007;-83
2022/04/24 04:55:42;;;;;;;;;;;9.30;99.90;;;;;;5084950;28;19979;-82
2022/04/24 04:58:07;;;;;;;;;;;9.30;99.90;;;;;;5042849;28;19928;-82
2022/04/24 05:00:33;;;;;;;;;;;9.30;99.90;;;;;;5069894;28;20092;-83
2022/04/24 05:02:58;;;;;;;;;;;9.30;99.90;;;;;;5038225;28;20264;-83
2022/04/24 05:05:24;;;;;;;;;;;9.30;99.90;;;;;;5070631;28;19958;-83
2022/04/24 05:07:51;;;;;;;;;;;9.30;99.90;;;;;;5038708;28;19917;-83
2022/04/24 05:10:17;;;;;;;;;;;9.30;99.90;;;;;;5088488;28;19908;-83
2022/04/24 05:12:42;;;;;;;;;;;9.30;99.90;;;;;;5053968;28;20050;-83
2022/04/24 05:15:09;;;;;;;;;;;9.40;99.90;;;;;;5090017;28;20413;-83
2022/04/24 05:17:36;;;;;;;;;;;9.40;99.40;;;;;;5066901;22;19974;-83
2022/04/24 05:20:02;;;;;;;;;;;9.40;99.50;;;;;;5055198;28;19974;-83
2022/04/24 05:22:28;;;;;;;;;;;9.40;99.90;;;;;;5070066;28;19909;-82
2022/04/24 05:24:53;;;;;;;;;;;9.50;99.90;;;;;;5069003;28;19924;-83
2022/04/24 05:27:19;;;;;;;;;;;9.50;99.90;;;;;;5041462;28;19939;-82
2022/04/24 05:29:45;;;;;;;;;;;9.50;99.90;;;;;;5044140;28;20416;-83
2022/04/24 05:32:10;;;;;;;;;;;9.50;99.90;;;;;;5050227;28;19955;-82
2022/04/24 05:34:36;;;;;;;;;;;9.50;99.90;;;;;;5035602;28;19959;-82
2022/04/24 05:37:03;;;;;;;;;;;9.50;99.90;;;;;;5074487;28;19920;-82
2022/04/24 05:39:28;;;;;;;;;;;9.50;99.90;;;;;;5045636;28;19913;-83
2022/04/24 05:41:54;;;;;;;;;;;9.50;99.90;;;;;;5050910;28;19924;-82
2022/04/24 05:44:19;;;;;;;;;;;9.50;99.90;;;;;;5015870;28;20058;-83
2022/04/24 05:46:45;;;;;;;;;;;9.50;99.90;;;;;;5048023;28;19939;-82
2022/04/24 05:49:14;;;;;;;;;;;9.50;99.90;;;;;;5048631;28;19920;-83
2022/04/24 05:51:39;;;;;;;;;;;9.50;99.90;;;;;;5035878;28;19921;-82
2022/04/24 05:54:05;;;;;;;;;;;9.50;99.90;;;;;;5063366;28;19913;-83
2022/04/24 05:56:30;;;;;;;;;;;9.60;99.90;;;;;;5053890;28;19917;-82
2022/04/24 05:58:56;;;;;;;;;;;9.60;99.90;;;;;;5026105;28;19925;-84
2022/04/24 06:01:21;;;;;;;;;;;9.60;99.90;;;;;;5044945;28;19919;-84
2022/04/24 06:03:48;;;;;;;;;;;9.70;99.90;;;;;;5049045;28;20265;-83
2022/04/24 06:06:13;;;;;;;;;;;9.70;99.90;;;;;;5018979;28;19917;-83
2022/04/24 06:08:39;;;;;;;;;;;9.70;99.90;;;;;;5033286;28;19966;-85
2022/04/24 06:11:04;;;;;;;;;;;9.70;99.90;;;;;;5021820;28;19967;-84
2022/04/24 06:13:30;;;;;;;;;;;9.80;99.90;;;;;;5036680;28;19918;-84
2022/04/24 06:16:00;;;;;;;;;;;9.80;99.90;;;;;;5017168;28;19921;-84
2022/04/24 06:18:32;;;;;;;;;;;9.90;99.90;;;;;;5017926;28;19980;-83
2022/04/24 06:20:58;;;;;;;;;;;9.90;99.90;;;;;;5047226;28;20275;-83
2022/04/24 06:23:28;;;;;;;;;;;9.90;99.90;;;;;;5057173;28;19958;-83
2022/04/24 06:25:54;;;;;;;;;;;10.00;99.90;;;;;;5042826;28;19921;-82
2022/04/24 06:28:20;;;;;;;;;;;10.00;99.90;;;;;;5038396;28;20376;-82
2022/04/24 06:30:47;;;;;;;;;;;10.00;99.90;;;;;;5016651;28;19932;-83
2022/04/24 06:33:13;;;;;;;;;;;10.00;99.90;;;;;;5071777;28;19924;-82
2022/04/24 06:35:39;;;;;;;;;;;10.00;99.90;;;;;;5026830;28;19951;-82
2022/04/24 06:38:05;;;;;;;;;;;10.00;99.90;;;;;;5052986;28;19988;-82
2022/04/24 06:40:31;;;;;;;;;;;10.10;99.90;;;;;;5052904;28;20481;-82
2022/04/24 06:43:00;;;;;;;;;;;10.10;99.90;;;;;;5056157;28;20437;-83
2022/04/24 06:45:38;;;;;;;;;;;10.20;99.90;;;;;;5053300;28;19959;-82
2022/04/24 06:48:04;;;;;;;;;;;10.30;99.90;;;;;;5084684;28;19917;-83
2022/04/24 06:50:30;;;;;;;;;;;10.30;99.90;;;;;;5049102;28;19913;-82
2022/04/24 06:52:57;;;;;;;;;;;10.30;99.90;;;;;;5037022;28;19923;-82
2022/04/24 06:55:22;;;;;;;;;;;10.40;99.90;;;;;;5045832;28;20305;-82
2022/04/24 06:57:50;;;;;;;;;;;10.40;99.90;;;;;;5032472;28;19918;-83
2022/04/24 07:00:16;;;;;;;;;;;10.40;99.90;;;;;;5037302;28;19917;-84
2022/04/24 07:02:41;;;;;;;;;;;10.40;99.90;;;;;;5032513;28;19963;-83
2022/04/24 07:05:07;;;;;;;;;;;10.40;99.90;;;;;;5050557;28;20395;-83
2022/04/24 07:07:32;;;;;;;;;;;10.40;99.90;;;;;;5053752;28;20308;-83
2022/04/24 07:09:59;;;;;;;;;;;10.30;99.90;;;;;;5061852;28;20008;-82
2022/04/24 07:12:24;;;;;;;;;;;10.30;99.90;;;;;;5065999;28;20344;-88
2022/04/24 07:14:50;;;;;;;;;;;10.20;99.90;;;;;;5040743;28;20013;-83
2022/04/24 07:17:17;;;;;;;;;;;10.10;99.90;;;;;;5051135;28;19928;-85
2022/04/24 07:19:43;;;;;;;;;;;10.00;99.90;;;;;;5068524;28;20461;-85
2022/04/24 07:22:09;;;;;;;;;;;9.90;99.90;;;;;;5045666;28;20007;-85
2022/04/24 07:24:35;;;;;;;;;;;9.80;99.90;;;;;;5049114;28;19917;-85
2022/04/24 07:27:00;;;;;;;;;;;9.80;99.90;;;;;;5065394;28;20462;-85
2022/04/24 07:29:26;;;;;;;;;;;9.70;99.90;;;;;;5051321;28;19967;-86
2022/04/24 07:31:51;;;;;;;;;;;9.70;99.90;;;;;;5052804;28;19920;-83
2022/04/24 07:34:18;;;;;;;;;;;9.70;99.90;;;;;;5065369;28;19913;-83
2022/04/24 07:36:44;;;;;;;;;;;9.70;99.90;;;;;;5033300;28;20450;-83
2022/04/24 07:39:09;;;;;;;;;;;9.70;99.90;;;;;;5018886;28;19928;-84
2022/04/24 07:41:38;;;;;;;;;;;9.70;99.90;;;;;;5034328;28;20405;-83
2022/04/24 07:44:03;;;;;;;;;;;9.60;99.90;;;;;;5040571;28;19919;-83
2022/04/24 07:46:29;;;;;;;;;;;9.70;99.90;;;;;;5043966;28;19917;-82
2022/04/24 07:48:55;;;;;;;;;;;9.70;99.90;;;;;;5032395;28;19917;-82
2022/04/24 07:51:20;;;;;;;;;;;9.60;99.90;;;;;;5031225;28;19917;-83
2022/04/24 07:53:46;;;;;;;;;;;9.60;99.90;;;;;;5064277;28;19917;-83
2022/04/24 07:56:11;;;;;;;;;;;9.50;99.90;;;;;;5023598;28;19921;-82
2022/04/24 07:58:37;;;;;;;;;;;9.60;99.90;;;;;;5014268;28;19971;-82
2022/04/24 08:01:02;;;;;;;;;;;9.60;99.90;;;;;;5012804;28;19925;-83
2022/04/24 08:03:28;;;;;;;;;;;9.60;99.90;;;;;;5043347;28;19917;-82
2022/04/24 08:05:53;;;;;;;;;;;9.60;99.90;;;;;;5017561;28;19921;-82
2022/04/24 08:08:20;;;;;;;;;;;9.60;99.90;;;;;;5072615;28;19970;-83
2022/04/24 08:10:47;;;;;;;;;;;9.70;99.90;;;;;;5055903;28;20379;-82
2022/04/24 08:13:13;;;;;;;;;;;9.70;99.90;;;;;;5050504;28;19960;-83
2022/04/24 08:15:39;;;;;;;;;;;9.70;99.90;;;;;;5058937;28;19990;-83
2022/04/24 08:18:05;;;;;;;;;;;9.70;99.90;;;;;;5048120;28;19925;-82
2022/04/24 08:20:31;;;;;;;;;;;9.70;99.90;;;;;;5028695;28;19925;-82
2022/04/24 08:22:59;;;;;;;;;;;9.70;99.90;;;;;;5055177;28;19912;-83
2022/04/24 08:25:25;;;;;;;;;;;9.70;99.90;;;;;;5036236;28;19921;-82
2022/04/24 08:27:51;;;;;;;;;;;9.70;99.90;;;;;;5068854;28;19917;-82
2022/04/24 08:30:18;;;;;;;;;;;9.70;99.90;;;;;;5075676;28;19917;-83
2022/04/24 08:32:44;;;;;;;;;;;9.70;99.90;;;;;;5056601;28;20319;-83
2022/04/24 08:35:13;;;;;;;;;;;9.70;99.90;;;;;;5056593;28;19917;-83
2022/04/24 08:37:40;;;;;;;;;;;9.70;99.90;;;;;;5036642;28;19913;-82
2022/04/24 08:40:07;;;;;;;;;;;9.70;99.90;;;;;;5028947;28;19978;-82
2022/04/24 08:42:33;;;;;;;;;;;9.70;99.90;;;;;;5063717;28;19913;-82
2022/04/24 08:44:59;;;;;;;;;;;9.80;99.90;;;;;;5049334;28;19913;-82
2022/04/24 08:47:25;;;;;;;;;;;9.80;99.90;;;;;;5063788;28;19925;-81
2022/04/24 08:49:54;;;;;;;;;;;9.90;99.90;;;;;;5018300;28;19925;-83
2022/04/24 08:52:21;;;;;;;;;;;10.00;99.90;;;;;;5052508;28;19917;-83
2022/04/24 08:54:46;;;;;;;;;;;10.00;99.90;;;;;;5050102;28;19920;-82
2022/04/24 08:57:12;;;;;;;;;;;10.10;99.90;;;;;;5014199;28;19920;-81
2022/04/24 08:59:38;;;;;;;;;;;10.10;99.90;;;;;;5063205;28;19931;-82
2022/04/24 09:02:04;;;;;;;;;;;10.10;99.90;;;;;;5068157;28;19917;-81
2022/04/24 09:04:34;;;;;;;;;;;10.10;99.90;;;;;;5030746;28;19927;-81
2022/04/24 09:07:00;;;;;;;;;;;10.10;99.90;;;;;;5028565;28;19921;-82
2022/04/24 09:09:26;;;;;;;;;;;10.20;99.90;;;;;;5048390;28;19958;-81
2022/04/24 09:11:51;;;;;;;;;;;10.30;99.90;;;;;;5033524;28;20004;-81
2022/04/24 09:14:20;;;;;;;;;;;10.40;99.90;;;;;;5016543;28;19921;-83
2022/04/24 09:16:47;;;;;;;;;;;10.40;99.90;;;;;;5049941;28;21015;-81
2022/04/24 09:19:16;;;;;;;;;;;10.50;99.90;;;;;;5013681;28;20007;-82
2022/04/24 09:21:42;;;;;;;;;;;10.60;99.90;;;;;;5030315;28;20014;-83
2022/04/24 09:24:07;;;;;;;;;;;10.60;99.90;;;;;;5067562;28;19956;-81
2022/04/24 09:26:33;;;;;;;;;;;10.70;99.90;;;;;;5048370;28;19956;-81
2022/04/24 09:28:59;;;;;;;;;;;10.70;99.90;;;;;;5026814;28;19921;-81
2022/04/24 09:31:28;;;;;;;;;;;10.90;99.90;;;;;;5037932;28;19913;-80
2022/04/24 09:33:54;;;;;;;;;;;11.00;99.90;;;;;;5059680;28;19965;-81
2022/04/24 09:36:24;;;;;;;;;;;11.00;99.90;;;;;;5060900;28;20013;-81
2022/04/24 09:38:49;;;;;;;;;;;11.20;99.90;;;;;;5065318;28;19997;-81
2022/04/24 09:41:19;;;;;;;;;;;11.30;99.90;;;;;;5045869;28;19948;-81
2022/04/24 09:43:45;;;;;;;;;;;11.50;99.90;;;;;;5026400;28;19926;-82
2022/04/24 09:46:11;;;;;;;;;;;11.60;99.90;;;;;;5046175;28;19923;-82
2022/04/24 09:48:36;;;;;;;;;;;11.70;99.90;;;;;;5079671;28;20036;-81
2022/04/24 09:51:02;;;;;;;;;;;11.90;99.90;;;;;;5039911;28;19913;-83
2022/04/24 09:53:29;;;;;;;;;;;11.90;99.90;;;;;;5079489;28;19924;-83
2022/04/24 09:55:55;;;;;;;;;;;12.00;99.90;;;;;;5025348;28;19972;-82
2022/04/24 09:58:21;;;;;;;;;;;12.00;99.90;;;;;;5078634;28;20449;-83
2022/04/24 10:00:47;;;;;;;;;;;11.90;99.90;;;;;;5060778;28;19913;-82
2022/04/24 10:03:14;;;;;;;;;;;11.90;99.90;;;;;;5029480;28;19955;-83
2022/04/24 10:05:42;;;;;;;;;;;11.90;97.70;;;;;;5029518;28;19913;-81
2022/04/24 10:08:08;;;;;;;;;;;11.80;99.90;;;;;;5062072;28;19944;-82
2022/04/24 10:10:34;;;;;;;;;;;11.80;99.90;;;;;;5029454;28;19917;-82
2022/04/24 10:13:00;;;;;;;;;;;11.80;99.90;;;;;;5046486;28;19920;-82
2022/04/24 10:15:26;;;;;;;;;;;12.00;99.90;;;;;;5029631;28;20007;-81
2022/04/24 10:18:14;;;;;;;;;;;12.20;99.90;;;;;;5063710;28;20011;-82
2022/04/24 10:20:40;;;;;;;;;;;12.40;99.90;;;;;;5035412;28;20438;-82
2022/04/24 10:23:05;;;;;;;;;;;12.70;99.90;;;;;;5049408;28;19976;-82
2022/04/24 10:25:38;;;;;;;;;;;12.90;99.90;;;;;;5018495;28;19996;-81
2022/04/24 10:28:11;;;;;;;;;;;13.10;99.90;;;;;;5062694;28;19917;-81
2022/04/24 10:30:36;;;;;;;;;;;13.20;98.50;;;;;;5042940;28;20327;-81
2022/04/24 10:33:20;;;;;;;;;;;13.30;96.70;;;;;;5012693;28;20024;-81
2022/04/24 10:35:48;;;;;;;;;;;13.20;96.30;;;;;;5040996;28;19913;-82
2022/04/24 10:38:14;;;;;;;;;;;13.10;93.80;;;;;;5065682;28;19919;-82
2022/04/24 10:40:39;;;;;;;;;;;13.00;93.40;;;;;;5063646;28;19908;-82
2022/04/24 10:43:07;;;;;;;;;;;13.00;94.80;;;;;;5060837;28;19963;-82
2022/04/24 10:45:43;;;;;;;;;;;13.10;96.20;;;;;;5018853;28;20387;-82
2022/04/24 10:48:13;;;;;;;;;;;13.20;95.90;;;;;;5079315;28;19912;-82
2022/04/24 10:50:49;;;;;;;;;;;13.50;93.50;;;;;;5049035;28;19952;-82
2022/04/24 10:53:15;;;;;;;;;;;13.50;90.70;;;;;;5032867;28;19916;-82
2022/04/24 10:55:42;;;;;;;;;;;13.80;90.70;;;;;;5026821;28;19920;-81
2022/04/24 10:58:09;;;;;;;;;;;14.10;92.50;;;;;;5046146;28;19923;-81
2022/04/24 11:00:35;;;;;;;;;;;14.40;86.70;;;;;;5065512;28;20450;-81
2022/04/24 11:03:05;;;;;;;;;;;14.70;84.80;;;;;;5050637;28;19909;-81
2022/04/24 11:05:35;;;;;;;;;;;15.10;85.90;;;;;;5045650;28;19944;-81
2022/04/24 11:08:02;;;;;;;;;;;15.40;86.70;;;;;;5048796;28;20371;-81
2022/04/24 11:10:27;;;;;;;;;;;15.60;85.40;;;;;;5015954;28;19917;-81
2022/04/24 11:12:54;;;;;;;;;;;15.80;85.00;;;;;;5065641;28;20394;-81
2022/04/24 11:15:20;;;;;;;;;;;15.90;83.50;;;;;;5032144;28;20370;-82
2022/04/24 11:17:46;;;;;;;;;;;16.00;82.10;;;;;;5048705;22;19990;-83
2022/04/24 11:20:13;;;;;;;;;;;15.90;73.30;;;;;;5047840;28;19920;-84
2022/04/24 11:22:52;;;;;;;;;;;15.70;70.80;;;;;;5052826;28;19972;-84
2022/04/24 11:25:22;;;;;;;;;;;15.60;73.50;;;;;;5048824;28;19920;-85
2022/04/24 11:27:52;;;;;;;;;;;15.40;71.60;;;;;;5035454;28;19913;-86
2022/04/24 11:30:18;;;;;;;;;;;15.30;74.30;;;;;;5054200;28;19917;-85
2022/04/24 11:32:53;;;;;;;;;;;15.10;78.40;;;;;;5071634;28;19915;-85
2022/04/24 11:35:20;;;;;;;;;;;15.00;79.60;;;;;;5054444;28;20367;-86
2022/04/24 11:37:46;;;;;;;;;;;15.10;80.20;;;;;;5052087;28;19913;-85
2022/04/24 11:40:12;;;;;;;;;;;15.20;80.50;;;;;;5033749;28;19917;-85
2022/04/24 11:42:40;;;;;;;;;;;15.20;77.00;;;;;;5071505;28;19990;-85
2022/04/24 11:50:47;;;;;;;;;;;15.30;73.30;;;;;;5069617;28;19920;-85
2022/04/24 11:53:12;;;;;;;;;;;15.30;71.90;;;;;;5070687;28;19923;-85
2022/04/24 11:58:25;;;;;;;;;;;15.30;75.80;;;;;;5070865;28;19931;-84
2022/04/24 12:00:51;;;;;;;;;;;15.30;71.30;;;;;;5068933;28;20008;-85
2022/04/24 12:03:16;;;;;;;;;;;15.30;70.70;;;;;;5052816;28;20453;-85
2022/04/24 12:05:42;;;;;;;;;;;15.30;75.00;;;;;;5036331;28;20007;-84
2022/04/24 12:08:11;;;;;;;;;;;15.40;75.60;;;;;;5066165;28;20290;-84
2022/04/24 12:10:42;;;;;;;;;;;15.50;75.50;;;;;;5070638;28;19919;-84
2022/04/24 12:13:08;;;;;;;;;;;15.50;75.70;;;;;;5061670;28;19920;-84
2022/04/24 12:15:34;;;;;;;;;;;15.40;71.30;;;;;;5053971;28;20023;-84
2022/04/24 12:18:01;;;;;;;;;;;15.30;74.50;;;;;;5041628;28;882082;-84
2022/04/24 12:20:40;;;;;;;;;;;15.20;74.90;;;;;;5054646;28;19954;-84
2022/04/24 12:23:12;;;;;;;;;;;15.10;77.30;;;;;;5065550;28;19943;-84
2022/04/24 12:25:49;;;;;;;;;;;15.00;77.30;;;;;;5051130;28;19921;-84
2022/04/24 12:28:26;;;;;;;;;;;14.90;78.60;;;;;;5064268;28;20007;-84
2022/04/24 12:30:51;;;;;;;;;;;14.80;80.60;;;;;;5066232;28;20303;-84
2022/04/24 12:33:17;;;;;;;;;;;14.80;81.70;;;;;;5054325;28;19916;-84
2022/04/24 12:35:43;;;;;;;;;;;14.80;81.20;;;;;;5053359;28;19920;-83
2022/04/24 12:38:13;;;;;;;;;;;14.80;79.90;;;;;;5038281;28;20012;-84
2022/04/24 12:40:38;;;;;;;;;;;14.80;81.20;;;;;;5050625;28;19908;-84
2022/04/24 12:43:05;;;;;;;;;;;14.90;81.90;;;;;;5036486;28;20528;-84
2022/04/24 12:45:32;;;;;;;;;;;15.00;78.10;;;;;;5049473;28;19956;-84
2022/04/24 12:48:01;;;;;;;;;;;15.10;79.20;;;;;;5071395;28;20015;-84
2022/04/24 12:50:26;;;;;;;;;;;15.20;78.60;;;;;;5069966;28;19961;-84
2022/04/24 12:52:52;;;;;;;;;;;15.40;78.60;;;;;;5055180;28;20023;-84
2022/04/24 12:55:17;;;;;;;;;;;15.50;76.20;;;;;;5052902;28;20375;-84
2022/04/24 12:57:43;;;;;;;;;;;15.60;74.30;;;;;;5034743;28;19992;-83
2022/04/24 13:00:09;;;;;;;;;;;15.70;73.90;;;;;;5034723;28;19916;-84
2022/04/24 13:02:34;;;;;;;;;;;15.80;74.60;;;;;;5051640;28;19939;-83
2022/04/24 13:05:00;;;;;;;;;;;16.10;74.50;;;;;;5051301;28;19955;-84
2022/04/24 13:07:27;;;;;;;;;;;16.30;71.20;;;;;;5053030;28;20357;-84
2022/04/24 13:09:52;;;;;;;;;;;16.70;71.10;;;;;;5072110;28;20275;-84
2022/04/24 13:12:19;;;;;;;;;;;16.80;63.10;;;;;;5052254;28;19942;-84
2022/04/24 13:14:45;;;;;;;;;;;16.90;60.20;;;;;;5034981;28;19920;-84
2022/04/24 13:19:55;;;;;;;;;;;17.30;62.10;;;;;;5062925;28;19970;-84
2022/04/24 13:22:20;;;;;;;;;;;17.40;60.30;;;;;;5055080;28;19916;-83
2022/04/24 13:24:46;;;;;;;;;;;17.60;60.50;;;;;;5054920;28;20282;-85
2022/04/24 13:27:12;;;;;;;;;;;17.70;59.00;;;;;;5044016;28;20136;-84
2022/04/24 13:29:38;;;;;;;;;;;17.80;58.80;;;;;;5050930;28;19916;-84
2022/04/24 13:32:04;;;;;;;;;;;17.80;58.50;;;;;;5034503;28;19913;-84
2022/04/24 13:34:30;;;;;;;;;;;17.60;57.70;;;;;;5065345;28;20390;-84
2022/04/24 13:39:41;;;;;;;;;;;16.90;58.70;;;;;;5071573;28;19938;-84
2022/04/24 13:42:07;;;;;;;;;;;16.60;58.60;;;;;;5054482;28;19917;-84
2022/04/24 13:44:33;;;;;;;;;;;16.30;60.20;;;;;;5041577;28;19953;-84
2022/04/24 13:46:59;;;;;;;;;;;16.10;62.20;;;;;;5051660;28;20291;-84
2022/04/24 13:49:25;;;;;;;;;;;15.80;60.90;;;;;;5051669;28;19916;-84
2022/04/24 13:51:50;;;;;;;;;;;15.60;63.40;;;;;;5034827;28;19917;-84
2022/04/24 13:54:16;;;;;;;;;;;15.40;64.80;;;;;;5035525;28;19913;-84
2022/04/24 13:56:41;;;;;;;;;;;15.30;67.30;;;;;;5034897;28;19924;-84
2022/04/24 13:59:07;;;;;;;;;;;15.20;69.00;;;;;;5035336;28;20284;-84
2022/04/24 14:01:33;;;;;;;;;;;15.10;70.00;;;;;;5051909;28;20003;-84
2022/04/24 14:03:58;;;;;;;;;;;14.80;68.30;;;;;;5035833;28;20375;-84
2022/04/24 14:06:24;;;;;;;;;;;14.60;70.20;;;;;;5035169;28;20214;-84
2022/04/24 14:08:50;;;;;;;;;;;14.50;72.70;;;;;;5035480;28;19913;-84
2022/04/24 14:11:15;;;;;;;;;;;14.50;75.40;;;;;;5035824;28;19913;-84
2022/04/24 14:13:41;;;;;;;;;;;14.40;76.90;;;;;;5039836;28;20015;-83
2022/04/24 14:16:06;;;;;;;;;;;14.40;77.40;;;;;;5053030;28;19931;-83
2022/04/24 14:18:32;;;;;;;;;;;14.40;77.80;;;;;;5069693;28;19924;-83
2022/04/24 14:20:58;;;;;;;;;;;14.30;77.10;;;;;;5070056;28;20385;-83
2022/04/24 14:23:24;;;;;;;;;;;14.30;77.80;;;;;;5053152;28;19935;-83
2022/04/24 14:25:52;;;;;;;;;;;14.30;79.70;;;;;;5069988;28;19919;-83
2022/04/24 14:28:18;;;;;;;;;;;14.20;80.70;;;;;;5069792;28;20501;-83
2022/04/24 14:30:46;;;;;;;;;;;14.20;81.50;;;;;;5053346;28;19920;-84
2022/04/24 14:33:11;;;;;;;;;;;14.20;82.30;;;;;;5070023;28;19908;-83